KBNL/BNL METAR and TAF weather

Enter ICAO airport designator
Station Type Date Time Source
KBNL METAR 2018/12/10 19:35 UTC NOAA

KBNL 101935Z AUTO 02008KT 7SM FEW006 SCT009 OVC018 05/04 A3006 RMK AO2


Station Type Date Time Source
KBNL Decoded METAR 2018/12/10 19:35 UTC NOAA

Station name not available
Dec 10, 2018 - 02:35 PM EST / 2018.12.10 1935 UTC
Wind: from the NNE (020 degrees) at 9 MPH (8 KT):0
Visibility: 7 mile(s):0
Sky conditions: overcast
Temperature: 41 F (5 C)
Dew Point: 39 F (4 C)
Relative Humidity: 93%
Pressure (altimeter): 30.06 in. Hg (1017 hPa)
ob: KBNL 101935Z AUTO 02008KT 7SM FEW006 SCT009 OVC018 05/04 A3006 RMK AO2
cycle: 19

Station Type Date Time Source
KBNL TAF UTC NOAA

Error!


Example: see airport list